EXS28B EGBB-EDDH
Flight info
| Callsign | EXS28B |
|---|---|
| Flight time | 1h 37m |
| Altitude | 33000 |
| Route | DTY P166 BANTO P155 SOMVA DCT MAVAS DCT GASTU DCT OSTOR T904 RIBSO RIBSO7A |
| Aircraft | B738/M-SDE2E3FGHIRWXY/LB1 |
Departure
| Time | 2026-04-20 16:09 |
|---|---|
| Airport | Birmingham Airport (EGBB) |
Arrival
| Time | 2026-04-20 17:47 |
|---|---|
| Airport | Hamburg Helmut Schmidt Airport (EDDH) |
| Time | Latitude | Longitude | Altitude | Speed | Heading |
|---|---|---|---|---|---|
| 2026-04-20 15:19 | 52.44956 | -1.73239 | 323 ft | 0 kts | 146° |
| 2026-04-20 15:54 | 52.44960 | -1.73243 | 323 ft | 3 kts | 146° |
| 2026-04-20 15:55 | 52.44979 | -1.73264 | 320 ft | 4 kts | 162° |
| 2026-04-20 15:55 | 52.45001 | -1.73262 | 320 ft | 4 kts | 224° |
| 2026-04-20 15:55 | 52.45013 | -1.73237 | 319 ft | 1 kts | 235° |
| 2026-04-20 15:55 | 52.45015 | -1.73232 | 318 ft | 2 kts | 235° |
| 2026-04-20 15:58 | 52.45013 | -1.73238 | 319 ft | 3 kts | 235° |
| 2026-04-20 15:59 | 52.44990 | -1.73293 | 320 ft | 7 kts | 235° |
| 2026-04-20 15:59 | 52.44960 | -1.73363 | 323 ft | 8 kts | 235° |
| 2026-04-20 15:59 | 52.44922 | -1.73452 | 322 ft | 10 kts | 235° |
| 2026-04-20 15:59 | 52.44896 | -1.73552 | 322 ft | 9 kts | 265° |
| 2026-04-20 16:00 | 52.44926 | -1.73622 | 321 ft | 8 kts | 324° |
| 2026-04-20 16:00 | 52.44969 | -1.73671 | 321 ft | 7 kts | 325° |
| 2026-04-20 16:00 | 52.45021 | -1.73730 | 322 ft | 12 kts | 326° |
| 2026-04-20 16:00 | 52.45033 | -1.73857 | 321 ft | 13 kts | 262° |
| 2026-04-20 16:01 | 52.45095 | -1.73954 | 322 ft | 13 kts | 329° |
| 2026-04-20 16:01 | 52.45167 | -1.74034 | 322 ft | 12 kts | 325° |
| 2026-04-20 16:01 | 52.45237 | -1.74112 | 322 ft | 12 kts | 327° |
| 2026-04-20 16:01 | 52.45248 | -1.74124 | 322 ft | 12 kts | 327° |
| 2026-04-20 16:02 | 52.45299 | -1.74179 | 321 ft | 12 kts | 326° |
| 2026-04-20 16:02 | 52.45366 | -1.74254 | 322 ft | 12 kts | 321° |
| 2026-04-20 16:02 | 52.45409 | -1.74362 | 322 ft | 11 kts | 297° |
| 2026-04-20 16:02 | 52.45444 | -1.74475 | 322 ft | 11 kts | 296° |
| 2026-04-20 16:03 | 52.45484 | -1.74579 | 322 ft | 11 kts | 316° |
| 2026-04-20 16:03 | 52.45543 | -1.74649 | 322 ft | 11 kts | 325° |
| 2026-04-20 16:03 | 52.45612 | -1.74727 | 318 ft | 14 kts | 326° |
| 2026-04-20 16:03 | 52.45703 | -1.74825 | 312 ft | 17 kts | 327° |
| 2026-04-20 16:04 | 52.45805 | -1.74941 | 309 ft | 18 kts | 326° |
| 2026-04-20 16:04 | 52.45912 | -1.75057 | 307 ft | 19 kts | 327° |
| 2026-04-20 16:04 | 52.46018 | -1.75176 | 307 ft | 18 kts | 326° |
| 2026-04-20 16:04 | 52.46121 | -1.75290 | 303 ft | 18 kts | 326° |
| 2026-04-20 16:05 | 52.46212 | -1.75392 | 301 ft | 13 kts | 311° |
| 2026-04-20 16:05 | 52.46207 | -1.75484 | 305 ft | 0 kts | 236° |
| 2026-04-20 16:08 | 52.46192 | -1.75521 | 309 ft | 7 kts | 236° |
| 2026-04-20 16:08 | 52.46151 | -1.75616 | 308 ft | 11 kts | 226° |
| 2026-04-20 16:08 | 52.46097 | -1.75591 | 309 ft | 9 kts | 145° |
| 2026-04-20 16:08 | 52.46018 | -1.75503 | 310 ft | 19 kts | 145° |
| 2026-04-20 16:09 | 52.45702 | -1.75151 | 322 ft | 94 kts | 146° |
| 2026-04-20 16:09 | 52.44960 | -1.74327 | 332 ft | 159 kts | 143° |
| 2026-04-20 16:09 | 52.44013 | -1.73258 | 1108 ft | 162 kts | 144° |
| 2026-04-20 16:09 | 52.43097 | -1.72247 | 2167 ft | 159 kts | 143° |
| 2026-04-20 16:10 | 52.42108 | -1.71135 | 2705 ft | 188 kts | 142° |
| 2026-04-20 16:10 | 52.40949 | -1.69933 | 3294 ft | 203 kts | 153° |
| 2026-04-20 16:10 | 52.39534 | -1.69317 | 3879 ft | 213 kts | 165° |
| 2026-04-20 16:10 | 52.38055 | -1.68808 | 4418 ft | 220 kts | 163° |
| 2026-04-20 16:11 | 52.36649 | -1.67844 | 5107 ft | 218 kts | 149° |
| 2026-04-20 16:11 | 52.35457 | -1.66227 | 5413 ft | 235 kts | 120° |
| 2026-04-20 16:11 | 52.34879 | -1.63670 | 5685 ft | 252 kts | 103° |
| 2026-04-20 16:11 | 52.34194 | -1.60978 | 6335 ft | 260 kts | 117° |
| 2026-04-20 16:12 | 52.33292 | -1.58367 | 7206 ft | 264 kts | 117° |
| 2026-04-20 16:12 | 52.32395 | -1.55709 | 8064 ft | 269 kts | 117° |
| 2026-04-20 16:12 | 52.31505 | -1.53026 | 8949 ft | 273 kts | 117° |
| 2026-04-20 16:12 | 52.30595 | -1.50253 | 9788 ft | 279 kts | 117° |
| 2026-04-20 16:13 | 52.29679 | -1.47443 | 10613 ft | 284 kts | 117° |
| 2026-04-20 16:13 | 52.28739 | -1.44543 | 11273 ft | 293 kts | 116° |
| 2026-04-20 16:13 | 52.27776 | -1.41564 | 12060 ft | 298 kts | 117° |
| 2026-04-20 16:13 | 52.26804 | -1.38553 | 12899 ft | 302 kts | 117° |
| 2026-04-20 16:14 | 52.25808 | -1.35472 | 13750 ft | 307 kts | 117° |
| 2026-04-20 16:14 | 52.24789 | -1.32320 | 14115 ft | 330 kts | 117° |
| 2026-04-20 16:14 | 52.23678 | -1.28886 | 14423 ft | 351 kts | 117° |
| 2026-04-20 16:14 | 52.22524 | -1.25319 | 15120 ft | 358 kts | 117° |
| 2026-04-20 16:15 | 52.21352 | -1.21707 | 15948 ft | 361 kts | 117° |
| 2026-04-20 16:15 | 52.20169 | -1.18066 | 16750 ft | 366 kts | 117° |
| 2026-04-20 16:15 | 52.19044 | -1.14293 | 17469 ft | 372 kts | 107° |
| 2026-04-20 16:15 | 52.18710 | -1.10121 | 18203 ft | 373 kts | 83° |
| 2026-04-20 16:16 | 52.19260 | -1.06071 | 18935 ft | 371 kts | 65° |
| 2026-04-20 16:16 | 52.20262 | -1.02160 | 19544 ft | 377 kts | 62° |
| 2026-04-20 16:16 | 52.21335 | -0.98195 | 20122 ft | 385 kts | 62° |
| 2026-04-20 16:16 | 52.22405 | -0.94177 | 20840 ft | 388 kts | 63° |
| 2026-04-20 16:17 | 52.23460 | -0.90101 | 21490 ft | 393 kts | 63° |
| 2026-04-20 16:17 | 52.24520 | -0.85947 | 22079 ft | 399 kts | 63° |
| 2026-04-20 16:17 | 52.25476 | -0.81628 | 22665 ft | 408 kts | 68° |
| 2026-04-20 16:17 | 52.26293 | -0.77208 | 23261 ft | 414 kts | 69° |
| 2026-04-20 16:18 | 52.27081 | -0.72651 | 23831 ft | 420 kts | 69° |
| 2026-04-20 16:18 | 52.27876 | -0.68017 | 24307 ft | 425 kts | 69° |
| 2026-04-20 16:18 | 52.28685 | -0.63380 | 25070 ft | 419 kts | 70° |
| 2026-04-20 16:18 | 52.29487 | -0.58826 | 25878 ft | 417 kts | 70° |
| 2026-04-20 16:19 | 52.30304 | -0.54224 | 26273 ft | 424 kts | 70° |
| 2026-04-20 16:19 | 52.31124 | -0.49632 | 26765 ft | 427 kts | 70° |
| 2026-04-20 16:19 | 52.31957 | -0.44971 | 27389 ft | 426 kts | 70° |
| 2026-04-20 16:19 | 52.32785 | -0.40323 | 28026 ft | 426 kts | 70° |
| 2026-04-20 16:20 | 52.33617 | -0.35648 | 28603 ft | 428 kts | 70° |
| 2026-04-20 16:20 | 52.34449 | -0.30963 | 29150 ft | 429 kts | 69° |
| 2026-04-20 16:20 | 52.35272 | -0.26267 | 29734 ft | 431 kts | 71° |
| 2026-04-20 16:20 | 52.35818 | -0.21410 | 30308 ft | 436 kts | 82° |
| 2026-04-20 16:21 | 52.35879 | -0.16475 | 30775 ft | 439 kts | 88° |
| 2026-04-20 16:21 | 52.35788 | -0.11486 | 31307 ft | 438 kts | 89° |
| 2026-04-20 16:21 | 52.35694 | -0.06515 | 31856 ft | 436 kts | 89° |
| 2026-04-20 16:21 | 52.35632 | -0.01548 | 32378 ft | 434 kts | 88° |
| 2026-04-20 16:22 | 52.35588 | 0.03370 | 32986 ft | 430 kts | 88° |
| 2026-04-20 16:22 | 52.35553 | 0.08234 | 33275 ft | 434 kts | 88° |
| 2026-04-20 16:22 | 52.35475 | 0.18337 | 33282 ft | 453 kts | 88° |
| 2026-04-20 16:23 | 52.35382 | 0.28794 | 33302 ft | 469 kts | 89° |
| 2026-04-20 16:23 | 52.35272 | 0.39654 | 33297 ft | 485 kts | 89° |
| 2026-04-20 16:24 | 52.35148 | 0.50846 | 33299 ft | 496 kts | 89° |
| 2026-04-20 16:24 | 52.35011 | 0.62126 | 33290 ft | 495 kts | 89° |
| 2026-04-20 16:25 | 52.34867 | 0.73361 | 33287 ft | 493 kts | 89° |
| 2026-04-20 16:25 | 52.34713 | 0.84564 | 33285 ft | 491 kts | 89° |
| 2026-04-20 16:26 | 52.34550 | 0.95638 | 33276 ft | 489 kts | 89° |
| 2026-04-20 16:26 | 52.34377 | 1.06782 | 33275 ft | 488 kts | 90° |
| 2026-04-20 16:27 | 52.34196 | 1.17809 | 33263 ft | 486 kts | 90° |
| 2026-04-20 16:27 | 52.34004 | 1.28881 | 33270 ft | 485 kts | 90° |
| 2026-04-20 16:28 | 52.33804 | 1.39845 | 33271 ft | 485 kts | 90° |
| 2026-04-20 16:28 | 52.33593 | 1.50894 | 33287 ft | 484 kts | 90° |
| 2026-04-20 16:29 | 52.33363 | 1.61922 | 33271 ft | 485 kts | 90° |
| 2026-04-20 16:29 | 52.33123 | 1.72879 | 33271 ft | 485 kts | 90° |
| 2026-04-20 16:30 | 52.32875 | 1.83924 | 33271 ft | 485 kts | 90° |
| 2026-04-20 16:30 | 52.32613 | 1.94892 | 33272 ft | 485 kts | 91° |
| 2026-04-20 16:31 | 52.32334 | 2.05923 | 33272 ft | 485 kts | 91° |
| 2026-04-20 16:31 | 52.32047 | 2.16955 | 33264 ft | 485 kts | 91° |
| 2026-04-20 16:32 | 52.31751 | 2.27954 | 33263 ft | 484 kts | 91° |
| 2026-04-20 16:32 | 52.31447 | 2.38890 | 33258 ft | 484 kts | 91° |
| 2026-04-20 16:33 | 52.31133 | 2.49896 | 33272 ft | 483 kts | 91° |
| 2026-04-20 16:33 | 52.30841 | 2.60798 | 33252 ft | 482 kts | 88° |
| 2026-04-20 16:34 | 52.31823 | 2.71540 | 33258 ft | 476 kts | 71° |
| 2026-04-20 16:34 | 52.33432 | 2.80217 | 33249 ft | 475 kts | 71° |
| 2026-04-20 16:35 | 52.35319 | 2.90503 | 33253 ft | 475 kts | 71° |
| 2026-04-20 16:35 | 52.37153 | 3.00903 | 33258 ft | 474 kts | 72° |
| 2026-04-20 16:36 | 52.38962 | 3.11287 | 33244 ft | 474 kts | 72° |
| 2026-04-20 16:36 | 52.41057 | 3.21415 | 33241 ft | 471 kts | 64° |
| 2026-04-20 16:37 | 52.43829 | 3.31155 | 33239 ft | 470 kts | 62° |
| 2026-04-20 16:37 | 52.46651 | 3.40835 | 33236 ft | 470 kts | 63° |
| 2026-04-20 16:38 | 52.49422 | 3.50570 | 33252 ft | 470 kts | 63° |
| 2026-04-20 16:38 | 52.52135 | 3.60288 | 33244 ft | 470 kts | 64° |
| 2026-04-20 16:39 | 52.54834 | 3.70021 | 33237 ft | 469 kts | 63° |
| 2026-04-20 16:39 | 52.57529 | 3.79792 | 33232 ft | 469 kts | 63° |
| 2026-04-20 16:40 | 52.60223 | 3.89585 | 33240 ft | 469 kts | 64° |
| 2026-04-20 16:40 | 52.62899 | 3.99373 | 33248 ft | 469 kts | 63° |
| 2026-04-20 16:41 | 52.65557 | 4.09108 | 33236 ft | 469 kts | 64° |
| 2026-04-20 16:41 | 52.68226 | 4.18940 | 33235 ft | 469 kts | 65° |
| 2026-04-20 16:42 | 52.70868 | 4.28711 | 33246 ft | 468 kts | 65° |
| 2026-04-20 16:42 | 52.73513 | 4.38520 | 33231 ft | 466 kts | 66° |
| 2026-04-20 16:43 | 52.76139 | 4.48306 | 33234 ft | 464 kts | 66° |
| 2026-04-20 16:43 | 52.78741 | 4.58052 | 33241 ft | 463 kts | 65° |
| 2026-04-20 16:44 | 52.81312 | 4.67714 | 33241 ft | 462 kts | 64° |
| 2026-04-20 16:44 | 52.83892 | 4.77465 | 33238 ft | 462 kts | 64° |
| 2026-04-20 16:45 | 52.86460 | 4.87229 | 33234 ft | 462 kts | 66° |
| 2026-04-20 16:45 | 52.89028 | 4.97021 | 33244 ft | 463 kts | 66° |
| 2026-04-20 16:46 | 52.91579 | 5.06760 | 33243 ft | 461 kts | 66° |
| 2026-04-20 16:46 | 52.94085 | 5.16388 | 33232 ft | 447 kts | 67° |
| 2026-04-20 16:47 | 52.96530 | 5.25834 | 33249 ft | 447 kts | 67° |
| 2026-04-20 16:47 | 52.98986 | 5.35354 | 33250 ft | 448 kts | 67° |
| 2026-04-20 16:48 | 53.01420 | 5.44831 | 33253 ft | 449 kts | 67° |
| 2026-04-20 16:48 | 53.03874 | 5.54423 | 33258 ft | 451 kts | 67° |
| 2026-04-20 16:49 | 53.06323 | 5.64039 | 33273 ft | 450 kts | 67° |
| 2026-04-20 16:49 | 53.08738 | 5.73558 | 33259 ft | 447 kts | 68° |
| 2026-04-20 16:50 | 53.11144 | 5.83084 | 33258 ft | 443 kts | 68° |
| 2026-04-20 16:50 | 53.13502 | 5.92460 | 33260 ft | 440 kts | 69° |
| 2026-04-20 16:51 | 53.15866 | 6.01908 | 33266 ft | 441 kts | 69° |
| 2026-04-20 16:51 | 53.18217 | 6.11334 | 33258 ft | 445 kts | 70° |
| 2026-04-20 16:52 | 53.20597 | 6.20919 | 33256 ft | 448 kts | 69° |
| 2026-04-20 16:52 | 53.22964 | 6.30492 | 33243 ft | 447 kts | 68° |
| 2026-04-20 16:53 | 53.25311 | 6.40027 | 33231 ft | 440 kts | 68° |
| 2026-04-20 16:53 | 53.27628 | 6.49476 | 33244 ft | 440 kts | 68° |
| 2026-04-20 16:54 | 53.29943 | 6.58961 | 33249 ft | 446 kts | 68° |
| 2026-04-20 16:54 | 53.32296 | 6.68645 | 33237 ft | 449 kts | 68° |
| 2026-04-20 16:55 | 53.34620 | 6.78254 | 33229 ft | 444 kts | 69° |
| 2026-04-20 16:55 | 53.36923 | 6.87819 | 33229 ft | 441 kts | 69° |
| 2026-04-20 16:56 | 53.39194 | 6.97292 | 33232 ft | 440 kts | 69° |
| 2026-04-20 16:56 | 53.41469 | 7.06826 | 33241 ft | 441 kts | 69° |
| 2026-04-20 16:57 | 53.43760 | 7.16469 | 32806 ft | 451 kts | 69° |
| 2026-04-20 16:57 | 53.44917 | 7.21359 | 32196 ft | 448 kts | 69° |
| 2026-04-20 16:57 | 53.46059 | 7.26188 | 31544 ft | 443 kts | 69° |
| 2026-04-20 16:58 | 53.47191 | 7.30982 | 30860 ft | 441 kts | 70° |
| 2026-04-20 16:58 | 53.48298 | 7.35682 | 30356 ft | 434 kts | 70° |
| 2026-04-20 16:58 | 53.49397 | 7.40360 | 30043 ft | 421 kts | 70° |
| 2026-04-20 16:58 | 53.50465 | 7.44917 | 29751 ft | 419 kts | 70° |
| 2026-04-20 16:59 | 53.51538 | 7.49515 | 29457 ft | 425 kts | 70° |
| 2026-04-20 16:59 | 53.52606 | 7.54100 | 29203 ft | 426 kts | 70° |
| 2026-04-20 16:59 | 53.53687 | 7.58744 | 28910 ft | 422 kts | 70° |
| 2026-04-20 16:59 | 53.54755 | 7.63342 | 28630 ft | 419 kts | 70° |
| 2026-04-20 17:00 | 53.56851 | 7.72381 | 28061 ft | 414 kts | 70° |
| 2026-04-20 17:00 | 53.57886 | 7.76869 | 27591 ft | 406 kts | 70° |
| 2026-04-20 17:00 | 53.58898 | 7.81269 | 27135 ft | 399 kts | 69° |
| 2026-04-20 17:01 | 53.59887 | 7.85578 | 26671 ft | 392 kts | 69° |
| 2026-04-20 17:01 | 53.60867 | 7.89850 | 26193 ft | 386 kts | 69° |
| 2026-04-20 17:01 | 53.61827 | 7.94043 | 25744 ft | 382 kts | 69° |
| 2026-04-20 17:01 | 53.62756 | 7.98175 | 25217 ft | 380 kts | 71° |
| 2026-04-20 17:02 | 53.63474 | 8.02470 | 24691 ft | 378 kts | 75° |
| 2026-04-20 17:02 | 53.64084 | 8.06813 | 24095 ft | 379 kts | 77° |
| 2026-04-20 17:02 | 53.64653 | 8.11085 | 23799 ft | 370 kts | 77° |
| 2026-04-20 17:02 | 53.65212 | 8.15276 | 23405 ft | 363 kts | 76° |
| 2026-04-20 17:03 | 53.65768 | 8.19392 | 22960 ft | 358 kts | 76° |
| 2026-04-20 17:03 | 53.66326 | 8.23468 | 22501 ft | 354 kts | 76° |
| 2026-04-20 17:03 | 53.66883 | 8.27495 | 22037 ft | 350 kts | 76° |
| 2026-04-20 17:03 | 53.67430 | 8.31434 | 21589 ft | 347 kts | 76° |
| 2026-04-20 17:04 | 53.67981 | 8.35394 | 21152 ft | 344 kts | 75° |
| 2026-04-20 17:04 | 53.68527 | 8.39321 | 20708 ft | 342 kts | 75° |
| 2026-04-20 17:04 | 53.69062 | 8.43172 | 20280 ft | 339 kts | 75° |
| 2026-04-20 17:04 | 53.69600 | 8.47048 | 19848 ft | 336 kts | 76° |
| 2026-04-20 17:05 | 53.70130 | 8.50878 | 19426 ft | 334 kts | 76° |
| 2026-04-20 17:05 | 53.70655 | 8.54681 | 19005 ft | 331 kts | 76° |
| 2026-04-20 17:05 | 53.71168 | 8.58409 | 18586 ft | 322 kts | 76° |
| 2026-04-20 17:05 | 53.71668 | 8.62053 | 18117 ft | 313 kts | 76° |
| 2026-04-20 17:06 | 53.72152 | 8.65590 | 17655 ft | 306 kts | 76° |
| 2026-04-20 17:06 | 53.72620 | 8.69011 | 17192 ft | 298 kts | 76° |
| 2026-04-20 17:06 | 53.73080 | 8.72385 | 16722 ft | 291 kts | 76° |
| 2026-04-20 17:06 | 53.73528 | 8.75677 | 16286 ft | 284 kts | 76° |
| 2026-04-20 17:07 | 53.73967 | 8.78908 | 15845 ft | 278 kts | 76° |
| 2026-04-20 17:07 | 53.74396 | 8.82071 | 15418 ft | 273 kts | 76° |
| 2026-04-20 17:07 | 53.74810 | 8.85137 | 15021 ft | 268 kts | 76° |
| 2026-04-20 17:07 | 53.75222 | 8.88189 | 14632 ft | 267 kts | 77° |
| 2026-04-20 17:08 | 53.75636 | 8.91262 | 14259 ft | 269 kts | 77° |
| 2026-04-20 17:08 | 53.76052 | 8.94358 | 13855 ft | 271 kts | 77° |
| 2026-04-20 17:08 | 53.76470 | 8.97474 | 13424 ft | 272 kts | 77° |
| 2026-04-20 17:08 | 53.76890 | 9.00614 | 12992 ft | 272 kts | 77° |
| 2026-04-20 17:09 | 53.77302 | 9.03701 | 12560 ft | 266 kts | 77° |
| 2026-04-20 17:09 | 53.77705 | 9.06726 | 12124 ft | 261 kts | 77° |
| 2026-04-20 17:09 | 53.78100 | 9.09701 | 11713 ft | 256 kts | 77° |
| 2026-04-20 17:09 | 53.78488 | 9.12621 | 11311 ft | 252 kts | 77° |
| 2026-04-20 17:10 | 53.78857 | 9.15410 | 11232 ft | 241 kts | 77° |
| 2026-04-20 17:10 | 53.79222 | 9.18170 | 11216 ft | 239 kts | 77° |
| 2026-04-20 17:10 | 53.79584 | 9.20915 | 11228 ft | 239 kts | 77° |
| 2026-04-20 17:10 | 53.79948 | 9.23676 | 11242 ft | 240 kts | 77° |
| 2026-04-20 17:11 | 53.80311 | 9.26432 | 11228 ft | 239 kts | 77° |
| 2026-04-20 17:11 | 53.80665 | 9.29135 | 11216 ft | 238 kts | 77° |
| 2026-04-20 17:11 | 53.81021 | 9.31854 | 11222 ft | 237 kts | 77° |
| 2026-04-20 17:11 | 53.81357 | 9.34581 | 11221 ft | 236 kts | 83° |
| 2026-04-20 17:12 | 53.81174 | 9.37337 | 11237 ft | 238 kts | 105° |
| 2026-04-20 17:12 | 53.80456 | 9.39887 | 11227 ft | 243 kts | 122° |
| 2026-04-20 17:12 | 53.79289 | 9.41989 | 11239 ft | 247 kts | 134° |
| 2026-04-20 17:12 | 53.77849 | 9.43584 | 11222 ft | 256 kts | 156° |
| 2026-04-20 17:13 | 53.76063 | 9.44110 | 11219 ft | 268 kts | 175° |
| 2026-04-20 17:13 | 53.74206 | 9.43526 | 11057 ft | 277 kts | 199° |
| 2026-04-20 17:13 | 53.72499 | 9.41987 | 10961 ft | 275 kts | 206° |
| 2026-04-20 17:13 | 53.70846 | 9.40308 | 10811 ft | 279 kts | 212° |
| 2026-04-20 17:14 | 53.69575 | 9.37880 | 10581 ft | 283 kts | 243° |
| 2026-04-20 17:14 | 53.69103 | 9.34676 | 10394 ft | 282 kts | 271° |
| 2026-04-20 17:14 | 53.69499 | 9.31513 | 10201 ft | 277 kts | 299° |
| 2026-04-20 17:14 | 53.70658 | 9.29007 | 9996 ft | 267 kts | 327° |
| 2026-04-20 17:15 | 53.72281 | 9.27676 | 9878 ft | 254 kts | 354° |
| 2026-04-20 17:15 | 53.73997 | 9.27557 | 9756 ft | 244 kts | 13° |
| 2026-04-20 17:15 | 53.75584 | 9.28397 | 9613 ft | 238 kts | 31° |
| 2026-04-20 17:15 | 53.77021 | 9.29741 | 9499 ft | 241 kts | 34° |
| 2026-04-20 17:16 | 53.78473 | 9.31184 | 9377 ft | 242 kts | 34° |
| 2026-04-20 17:16 | 53.79921 | 9.32616 | 9229 ft | 240 kts | 34° |
| 2026-04-20 17:16 | 53.81364 | 9.34044 | 9100 ft | 239 kts | 37° |
| 2026-04-20 17:16 | 53.82511 | 9.35998 | 8957 ft | 233 kts | 62° |
| 2026-04-20 17:17 | 53.83063 | 9.38524 | 8900 ft | 228 kts | 81° |
| 2026-04-20 17:17 | 53.83015 | 9.41191 | 8827 ft | 230 kts | 102° |
| 2026-04-20 17:17 | 53.82335 | 9.43673 | 8767 ft | 238 kts | 124° |
| 2026-04-20 17:17 | 53.81069 | 9.45528 | 8711 ft | 245 kts | 147° |
| 2026-04-20 17:18 | 53.79433 | 9.46314 | 8639 ft | 253 kts | 172° |
| 2026-04-20 17:18 | 53.77676 | 9.45887 | 8575 ft | 260 kts | 198° |
| 2026-04-20 17:18 | 53.76051 | 9.44510 | 8505 ft | 262 kts | 206° |
| 2026-04-20 17:18 | 53.74470 | 9.42935 | 8451 ft | 263 kts | 207° |
| 2026-04-20 17:19 | 53.72889 | 9.41352 | 8382 ft | 265 kts | 206° |
| 2026-04-20 17:19 | 53.71304 | 9.39759 | 8311 ft | 266 kts | 211° |
| 2026-04-20 17:19 | 53.70046 | 9.37450 | 8223 ft | 272 kts | 242° |
| 2026-04-20 17:19 | 53.69570 | 9.34424 | 8172 ft | 271 kts | 270° |
| 2026-04-20 17:20 | 53.69947 | 9.31358 | 8107 ft | 266 kts | 299° |
| 2026-04-20 17:20 | 53.71076 | 9.28972 | 8042 ft | 258 kts | 327° |
| 2026-04-20 17:20 | 53.72667 | 9.27741 | 7985 ft | 249 kts | 354° |
| 2026-04-20 17:20 | 53.74357 | 9.27722 | 7934 ft | 240 kts | 15° |
| 2026-04-20 17:21 | 53.75406 | 9.28261 | 7887 ft | 236 kts | 29° |
| 2026-04-20 17:21 | 53.76849 | 9.29562 | 7831 ft | 234 kts | 33° |
| 2026-04-20 17:21 | 53.78255 | 9.30958 | 7763 ft | 235 kts | 34° |
| 2026-04-20 17:21 | 53.79667 | 9.32360 | 7706 ft | 235 kts | 34° |
| 2026-04-20 17:22 | 53.81078 | 9.33750 | 7644 ft | 235 kts | 34° |
| 2026-04-20 17:22 | 53.82310 | 9.35488 | 7555 ft | 230 kts | 57° |
| 2026-04-20 17:22 | 53.82962 | 9.37919 | 7506 ft | 227 kts | 77° |
| 2026-04-20 17:22 | 53.83026 | 9.40578 | 7440 ft | 227 kts | 98° |
| 2026-04-20 17:23 | 53.82464 | 9.43057 | 7348 ft | 235 kts | 121° |
| 2026-04-20 17:23 | 53.81292 | 9.45012 | 7268 ft | 241 kts | 144° |
| 2026-04-20 17:23 | 53.79689 | 9.45958 | 7229 ft | 250 kts | 169° |
| 2026-04-20 17:23 | 53.77950 | 9.45683 | 7222 ft | 255 kts | 196° |
| 2026-04-20 17:24 | 53.76371 | 9.44338 | 7229 ft | 260 kts | 206° |
| 2026-04-20 17:24 | 53.74794 | 9.42795 | 7227 ft | 262 kts | 207° |
| 2026-04-20 17:24 | 53.73217 | 9.41245 | 7214 ft | 262 kts | 206° |
| 2026-04-20 17:24 | 53.71644 | 9.39684 | 7203 ft | 262 kts | 210° |
| 2026-04-20 17:25 | 53.70384 | 9.37455 | 7218 ft | 265 kts | 241° |
| 2026-04-20 17:25 | 53.69904 | 9.34475 | 7211 ft | 266 kts | 271° |
| 2026-04-20 17:25 | 53.70265 | 9.31489 | 7229 ft | 264 kts | 299° |
| 2026-04-20 17:25 | 53.71376 | 9.29090 | 7211 ft | 258 kts | 328° |
| 2026-04-20 17:26 | 53.72951 | 9.27894 | 7226 ft | 245 kts | 355° |
| 2026-04-20 17:26 | 53.74622 | 9.27921 | 7226 ft | 239 kts | 17° |
| 2026-04-20 17:26 | 53.76154 | 9.28917 | 7227 ft | 234 kts | 31° |
| 2026-04-20 17:26 | 53.77569 | 9.30275 | 7213 ft | 234 kts | 34° |
| 2026-04-20 17:27 | 53.78976 | 9.31673 | 7225 ft | 234 kts | 33° |
| 2026-04-20 17:27 | 53.80386 | 9.33067 | 7228 ft | 234 kts | 34° |
| 2026-04-20 17:27 | 53.81751 | 9.34497 | 7220 ft | 231 kts | 43° |
| 2026-04-20 17:27 | 53.82685 | 9.36624 | 7233 ft | 225 kts | 67° |
| 2026-04-20 17:28 | 53.83052 | 9.39188 | 7232 ft | 225 kts | 87° |
| 2026-04-20 17:28 | 53.82802 | 9.41809 | 7228 ft | 228 kts | 110° |
| 2026-04-20 17:28 | 53.81927 | 9.44060 | 7236 ft | 234 kts | 132° |
| 2026-04-20 17:28 | 53.80524 | 9.45530 | 7228 ft | 243 kts | 156° |
| 2026-04-20 17:29 | 53.78843 | 9.45868 | 7231 ft | 252 kts | 180° |
| 2026-04-20 17:29 | 53.77144 | 9.44980 | 7221 ft | 260 kts | 204° |
| 2026-04-20 17:29 | 53.75563 | 9.43456 | 7223 ft | 261 kts | 207° |
| 2026-04-20 17:29 | 53.73997 | 9.41901 | 7213 ft | 261 kts | 206° |
| 2026-04-20 17:30 | 53.72431 | 9.40352 | 7212 ft | 260 kts | 207° |
| 2026-04-20 17:30 | 53.70959 | 9.38573 | 7206 ft | 264 kts | 226° |
| 2026-04-20 17:30 | 53.70114 | 9.35838 | 7226 ft | 266 kts | 257° |
| 2026-04-20 17:30 | 53.70110 | 9.32739 | 7225 ft | 266 kts | 287° |
| 2026-04-20 17:31 | 53.70918 | 9.30033 | 7219 ft | 260 kts | 315° |
| 2026-04-20 17:31 | 53.72339 | 9.28303 | 7221 ft | 249 kts | 343° |
| 2026-04-20 17:31 | 53.74013 | 9.27851 | 7233 ft | 240 kts | 7° |
| 2026-04-20 17:31 | 53.75608 | 9.28469 | 7218 ft | 234 kts | 28° |
| 2026-04-20 17:32 | 53.77024 | 9.29736 | 7221 ft | 232 kts | 34° |
| 2026-04-20 17:32 | 53.78420 | 9.31119 | 7226 ft | 232 kts | 33° |
| 2026-04-20 17:32 | 53.79823 | 9.32511 | 7217 ft | 233 kts | 33° |
| 2026-04-20 17:32 | 53.81224 | 9.33894 | 7227 ft | 233 kts | 34° |
| 2026-04-20 17:33 | 53.82405 | 9.35732 | 7231 ft | 230 kts | 60° |
| 2026-04-20 17:33 | 53.82994 | 9.38189 | 7226 ft | 229 kts | 79° |
| 2026-04-20 17:33 | 53.82984 | 9.40877 | 7220 ft | 230 kts | 101° |
| 2026-04-20 17:33 | 53.82328 | 9.43331 | 7221 ft | 232 kts | 124° |
| 2026-04-20 17:34 | 53.81087 | 9.45109 | 7221 ft | 238 kts | 148° |
| 2026-04-20 17:34 | 53.79550 | 9.46233 | 7153 ft | 243 kts | 153° |
| 2026-04-20 17:34 | 53.77981 | 9.47266 | 7007 ft | 247 kts | 154° |
| 2026-04-20 17:34 | 53.76374 | 9.48314 | 6751 ft | 247 kts | 154° |
| 2026-04-20 17:35 | 53.74778 | 9.49350 | 6502 ft | 245 kts | 154° |
| 2026-04-20 17:35 | 53.73191 | 9.50375 | 6264 ft | 242 kts | 154° |
| 2026-04-20 17:35 | 53.71620 | 9.51383 | 6049 ft | 239 kts | 154° |
| 2026-04-20 17:35 | 53.70073 | 9.52364 | 5829 ft | 236 kts | 154° |
| 2026-04-20 17:36 | 53.68538 | 9.53328 | 5575 ft | 235 kts | 155° |
| 2026-04-20 17:36 | 53.66900 | 9.53725 | 5288 ft | 246 kts | 183° |
| 2026-04-20 17:36 | 53.65289 | 9.52728 | 5104 ft | 248 kts | 205° |
| 2026-04-20 17:36 | 53.63786 | 9.51385 | 5034 ft | 242 kts | 204° |
| 2026-04-20 17:37 | 53.62332 | 9.50094 | 5009 ft | 236 kts | 204° |
| 2026-04-20 17:37 | 53.60870 | 9.48919 | 4998 ft | 229 kts | 193° |
| 2026-04-20 17:37 | 53.59330 | 9.48869 | 5009 ft | 219 kts | 159° |
| 2026-04-20 17:37 | 53.57949 | 9.50002 | 4778 ft | 224 kts | 144° |
| 2026-04-20 17:38 | 53.56608 | 9.51362 | 4500 ft | 225 kts | 144° |
| 2026-04-20 17:38 | 53.55276 | 9.52775 | 4194 ft | 226 kts | 144° |
| 2026-04-20 17:38 | 53.53959 | 9.54178 | 3916 ft | 221 kts | 144° |
| 2026-04-20 17:38 | 53.52690 | 9.55527 | 3624 ft | 215 kts | 143° |
| 2026-04-20 17:39 | 53.51435 | 9.56829 | 3318 ft | 208 kts | 143° |
| 2026-04-20 17:39 | 53.50205 | 9.58072 | 3063 ft | 200 kts | 143° |
| 2026-04-20 17:39 | 53.49062 | 9.59194 | 3015 ft | 184 kts | 144° |
| 2026-04-20 17:39 | 53.47996 | 9.60245 | 2998 ft | 173 kts | 138° |
| 2026-04-20 17:40 | 53.47365 | 9.61798 | 3020 ft | 158 kts | 96° |
| 2026-04-20 17:40 | 53.47361 | 9.63626 | 3026 ft | 159 kts | 84° |
| 2026-04-20 17:40 | 53.47462 | 9.65495 | 3067 ft | 161 kts | 80° |
| 2026-04-20 17:40 | 53.47777 | 9.67267 | 3095 ft | 162 kts | 66° |
| 2026-04-20 17:41 | 53.48386 | 9.68858 | 3113 ft | 163 kts | 52° |
| 2026-04-20 17:41 | 53.49117 | 9.70309 | 3137 ft | 163 kts | 54° |
| 2026-04-20 17:41 | 53.49831 | 9.71791 | 3189 ft | 161 kts | 54° |
| 2026-04-20 17:41 | 53.50519 | 9.73283 | 3177 ft | 165 kts | 54° |
| 2026-04-20 17:42 | 53.51205 | 9.74755 | 3097 ft | 156 kts | 54° |
| 2026-04-20 17:42 | 53.51877 | 9.76162 | 3056 ft | 155 kts | 53° |
| 2026-04-20 17:42 | 53.52566 | 9.77582 | 2953 ft | 158 kts | 53° |
| 2026-04-20 17:42 | 53.53263 | 9.79007 | 2766 ft | 160 kts | 53° |
| 2026-04-20 17:43 | 53.53957 | 9.80418 | 2544 ft | 153 kts | 53° |
| 2026-04-20 17:43 | 53.54631 | 9.81787 | 2338 ft | 150 kts | 52° |
| 2026-04-20 17:43 | 53.55286 | 9.83118 | 2138 ft | 148 kts | 52° |
| 2026-04-20 17:43 | 53.55940 | 9.84447 | 1950 ft | 146 kts | 52° |
| 2026-04-20 17:44 | 53.56590 | 9.85767 | 1776 ft | 148 kts | 51° |
| 2026-04-20 17:44 | 53.57235 | 9.87074 | 1557 ft | 140 kts | 51° |
| 2026-04-20 17:44 | 53.57839 | 9.88299 | 1379 ft | 133 kts | 51° |
| 2026-04-20 17:44 | 53.58423 | 9.89480 | 1209 ft | 129 kts | 50° |
| 2026-04-20 17:45 | 53.58992 | 9.90632 | 1041 ft | 127 kts | 51° |
| 2026-04-20 17:45 | 53.59545 | 9.91757 | 885 ft | 127 kts | 52° |
| 2026-04-20 17:45 | 53.60119 | 9.92918 | 709 ft | 128 kts | 51° |
| 2026-04-20 17:45 | 53.60699 | 9.94089 | 535 ft | 131 kts | 50° |
| 2026-04-20 17:46 | 53.61282 | 9.95274 | 353 ft | 132 kts | 50° |
| 2026-04-20 17:46 | 53.61862 | 9.96447 | 154 ft | 128 kts | 51° |
| 2026-04-20 17:46 | 53.62412 | 9.97566 | 50 ft | 119 kts | 50° |
| 2026-04-20 17:46 | 53.62869 | 9.98483 | 49 ft | 81 kts | 50° |
| 2026-04-20 17:47 | 53.63079 | 9.98950 | 49 ft | 29 kts | 72° |
| 2026-04-20 17:47 | 53.63089 | 9.99174 | 49 ft | 12 kts | 94° |
| 2026-04-20 17:47 | 53.63084 | 9.99309 | 49 ft | 11 kts | 88° |
| 2026-04-20 17:47 | 53.63111 | 9.99431 | 48 ft | 11 kts | 57° |
| 2026-04-20 17:48 | 53.63156 | 9.99537 | 48 ft | 12 kts | 52° |
| 2026-04-20 17:48 | 53.63206 | 9.99639 | 49 ft | 11 kts | 50° |
| 2026-04-20 17:48 | 53.63221 | 9.99749 | 48 ft | 10 kts | 117° |
| 2026-04-20 17:48 | 53.63164 | 9.99816 | 48 ft | 10 kts | 151° |
| 2026-04-20 17:49 | 53.63102 | 9.99869 | 49 ft | 10 kts | 153° |
| 2026-04-20 17:49 | 53.63042 | 9.99919 | 49 ft | 10 kts | 153° |
| 2026-04-20 17:49 | 53.62973 | 9.99979 | 49 ft | 10 kts | 152° |
| 2026-04-20 17:49 | 53.62964 | 10.00071 | 48 ft | 10 kts | 36° |
| 2026-04-20 17:50 | 53.63021 | 10.00131 | 50 ft | 9 kts | 34° |
| 2026-04-20 17:50 | 53.63071 | 10.00185 | 46 ft | 8 kts | 24° |
| 2026-04-20 17:50 | 53.63103 | 10.00212 | 50 ft | 5 kts | 58° |
| 2026-04-20 17:50 | 53.63108 | 10.00257 | 50 ft | 4 kts | 84° |
| 2026-04-20 17:51 | 53.63110 | 10.00302 | 50 ft | 4 kts | 85° |
| 2026-04-20 17:51 | 53.63112 | 10.00343 | 50 ft | 2 kts | 86° |
| 2026-04-20 17:51 | 53.63112 | 10.00361 | 48 ft | 1 kts | 86° |
| 2026-04-20 17:51 | 53.63113 | 10.00368 | 50 ft | 0 kts | 86° |
| 2026-04-20 17:58 | 53.63113 | 10.00367 | 50 ft | 0 kts | 86° |